WetterOnline ( http://www.wetteronline.de )

Wetter aktuell Helgoland

Aktuelles Wetter: Helgoland/Düne (8m)

6-stündlich | Neueste Meldungen
Ortszeit Temperatur Wetter
Mi, 18.07. 14:00 18.8° C fast wolkenlos
Mi, 18.07. 8:00 18.0° C leicht bewölkt
Mi, 18.07. 2:00 17.4° C wolkig
Di, 17.07. 20:00 19.4° C wolkenlos
Di, 17.07. 14:00 22.7° C wolkenlos
Di, 17.07. 8:00 19.6° C wolkenlos
Di, 17.07. 2:00 18.7° C wolkenlos
Mo, 16.07. 20:00 19.5° C wolkenlos
Ortszeit Temperatur Wetter
Mi, 18.07. 18:30 19.1° C wolkenlos
Mi, 18.07. 18:20 19.1° C wolkenlos
Mi, 18.07. 18:10 18.8° C wolkenlos
Mi, 18.07. 18:00 18.8° C wolkenlos
Mi, 18.07. 17:50 18.8° C wolkenlos
Mi, 18.07. 17:40 18.9° C fast wolkenlos
Mi, 18.07. 17:30 18.9° C leicht bewölkt
Mi, 18.07. 17:00 19.1° C fast wolkenlos
Mi, 18.07. 16:30 19.5° C fast wolkenlos
Mi, 18.07. 16:00 19.1° C wolkenlos
Mi, 18.07. 15:30 19.2° C fast wolkenlos
Ortszeit Relative Feuchte Sichtweite
Mi, 18.07. 14:00 69% 21 km
Mi, 18.07. 8:00 81% 35 km
Mi, 18.07. 2:00 88% 17 km
Di, 17.07. 20:00 80% 11 km
Di, 17.07. 14:00 66% 12 km
Di, 17.07. 8:00 84% 17 km
Di, 17.07. 2:00 82% 30 km
Mo, 16.07. 20:00 75% 30 km
Ortszeit Relative Feuchte Sichtweite
Mi, 18.07. 18:30 72% 26 km
Mi, 18.07. 18:20 72% -
Mi, 18.07. 18:10 73% -
Mi, 18.07. 18:00 73% 21 km
Mi, 18.07. 17:50 73% -
Mi, 18.07. 17:40 73% -
Mi, 18.07. 17:30 71% 26 km
Mi, 18.07. 17:00 71% 24 km
Mi, 18.07. 16:30 70% 23 km
Mi, 18.07. 16:00 71% 21 km
Mi, 18.07. 15:30 70% 16 km
Ortszeit Niederschlagsmenge Niederschlagsart
Mi, 18.07. 14:00 0.0 l/m2 in 6 Std. -
Mi, 18.07. 8:00 0.0 l/m2 in 12 Std. -
Mi, 18.07. 2:00 0.0 l/m2 in 6 Std. -
Di, 17.07. 20:00 0.0 l/m2 in 12 Std. -
Di, 17.07. 14:00 0.0 l/m2 in 6 Std. -
Di, 17.07. 8:00 0.0 l/m2 in 12 Std. -
Di, 17.07. 2:00 0.0 l/m2 in 6 Std. -
Mo, 16.07. 20:00 0.0 l/m2 in 12 Std. -
Ortszeit Niederschlagsmenge Niederschlagsart
Mi, 18.07. 18:30 0.0 l/m2 in 1 Std. -
Mi, 18.07. 18:20 keine Meldung -
Mi, 18.07. 18:10 keine Meldung -
Mi, 18.07. 18:00 0.0 l/m2 in 1 Std. -
Mi, 18.07. 17:50 keine Meldung -
Mi, 18.07. 17:40 keine Meldung -
Mi, 18.07. 17:30 0.0 l/m2 in 1 Std. -
Mi, 18.07. 17:00 0.0 l/m2 in 1 Std. -
Mi, 18.07. 16:30 0.0 l/m2 in 1 Std. -
Mi, 18.07. 16:00 0.0 l/m2 in 1 Std. -
Mi, 18.07. 15:30 0.0 l/m2 in 1 Std. -
Ortszeit Stärke Spitze Richtung
km/h Bft. km/h Grad Sektor
Mi, 18.07. 14:00 24 4 39 300° NW
Mi, 18.07. 8:00 30 5 39 300° NW
Mi, 18.07. 2:00 29 5 43 260° W
Di, 17.07. 20:00 28 4 39 280° W
Di, 17.07. 14:00 6 1 17 200° S
Di, 17.07. 8:00 11 2 14 140° SO
Di, 17.07. 2:00 11 2 25 40° NO
Mo, 16.07. 20:00 17 3 22 350° N
Ortszeit Stärke Spitze Richtung
km/h Bft. km/h Grad Sektor
Mi, 18.07. 18:30 20 4 24 300° NW
Mi, 18.07. 18:20 20 4 - 300° NW
Mi, 18.07. 18:10 20 4 - 300° NW
Mi, 18.07. 18:00 18 3 29 300° NW
Mi, 18.07. 17:50 18 3 - 300° NW
Mi, 18.07. 17:40 18 3 - 300° NW
Mi, 18.07. 17:30 20 4 28 300° NW
Mi, 18.07. 17:00 22 4 25 300° NW
Mi, 18.07. 16:30 22 4 25 300° NW
Mi, 18.07. 16:00 20 4 28 310° NW
Mi, 18.07. 15:30 22 4 29 300° NW
Ortszeit Untergrenze Bedeckung Gattung
total tief tief mittel hoch
Mi, 18.07. 14:00 9000 m 2/8 0/8 - - -
Mi, 18.07. 8:00 390 m 4/8 4/8 - - -
Mi, 18.07. 2:00 300 m 6/8 6/8 - - -
Di, 17.07. 20:00 - 0/8 0/8 - - -
Di, 17.07. 14:00 - 0/8 0/8 - - -
Di, 17.07. 8:00 - 0/8 0/8 - - -
Di, 17.07. 2:00 - 0/8 0/8 - - -
Mo, 16.07. 20:00 - 0/8 0/8 - - -
Ortszeit Bedeckungsgrad in Achtel und Wolkenuntergrenze
Mi, 18.07. 18:30 keine Wolken
Mi, 18.07. 18:20 keine Wolken
Mi, 18.07. 18:10 keine Wolken
Mi, 18.07. 18:00 keine Wolken
Mi, 18.07. 17:50 keine Wolken
Mi, 18.07. 17:40 1(9000m)
Mi, 18.07. 17:30 3(9000m)
Mi, 18.07. 17:00 1(9000m)
Mi, 18.07. 16:30 2(9000m)
Mi, 18.07. 16:00 1(450m)
Mi, 18.07. 15:30 2(9000m)
Ortszeit Luftdruck NN (hPa) Tendenz (hPa in 3 Std.)
Mi, 18.07. 14:00 1019 + 0,9
Mi, 18.07. 8:00 1017 + 0,9
Mi, 18.07. 2:00 1015 - 0,2
Di, 17.07. 20:00 1014 + 1,2
Di, 17.07. 14:00 1014 0,0
Di, 17.07. 8:00 1014 + 0,3
Di, 17.07. 2:00 1014 - 0,3
Mo, 16.07. 20:00 1014 - 0,8
Ortszeit Luftdruck NN (hPa) Tendenz (hPa in 3 Std.)
Mi, 18.07. 18:30 1019 + 0,1
Mi, 18.07. 18:20 1019 keine Meldung
Mi, 18.07. 18:10 1019 keine Meldung
Mi, 18.07. 18:00 1019 + 0,2
Mi, 18.07. 17:50 1019 keine Meldung
Mi, 18.07. 17:40 1019 keine Meldung
Mi, 18.07. 17:30 1019 + 0,3
Mi, 18.07. 17:00 1019 + 0,5
Mi, 18.07. 16:30 1019 + 0,3
Mi, 18.07. 16:00 1019 + 0,5
Mi, 18.07. 15:30 1019 + 0,6
Ortszeit Schneehöhe (cm)
Mi, 18.07. 14:00 -
Mi, 18.07. 8:00 -
Mi, 18.07. 2:00 -
Di, 17.07. 20:00 -
Di, 17.07. 14:00 -
Di, 17.07. 8:00 -
Di, 17.07. 2:00 -
Mo, 16.07. 20:00 -
Ortszeit Schneehöhe (cm)
Mi, 18.07. 18:30 -
Mi, 18.07. 18:20 -
Mi, 18.07. 18:10 -
Mi, 18.07. 18:00 -
Mi, 18.07. 17:50 -
Mi, 18.07. 17:40 -
Mi, 18.07. 17:30 -
Mi, 18.07. 17:00 -
Mi, 18.07. 16:30 -
Mi, 18.07. 16:00 -
Mi, 18.07. 15:30 -
Link zu dieser Seite / Seite empfehlen

Das Wetter in ...